sensor_id;sensor_type;location;lat;lon;timestamp;temperature;humidity
22290;DHT22;11313;50.116;8.424;2022-08-14T00:01:49;26.50;51.00
22290;DHT22;11313;50.116;8.424;2022-08-14T00:04:14;26.40;48.00
22290;DHT22;11313;50.116;8.424;2022-08-14T00:06:40;26.30;47.90
22290;DHT22;11313;50.116;8.424;2022-08-14T00:09:06;26.20;48.00
22290;DHT22;11313;50.116;8.424;2022-08-14T03:30:03;26.20;49.20
22290;DHT22;11313;50.116;8.424;2022-08-14T03:32:29;26.20;49.20
22290;DHT22;11313;50.116;8.424;2022-08-14T03:34:58;26.20;49.20
22290;DHT22;11313;50.116;8.424;2022-08-14T03:37:24;26.20;49.20
22290;DHT22;11313;50.116;8.424;2022-08-14T03:39:52;26.20;49.20
22290;DHT22;11313;50.116;8.424;2022-08-14T03:42:17;26.20;49.20
22290;DHT22;11313;50.116;8.424;2022-08-14T03:44:43;26.20;49.20
22290;DHT22;11313;50.116;8.424;2022-08-14T03:47:10;26.20;49.20
22290;DHT22;11313;50.116;8.424;2022-08-14T03:49:36;26.10;49.10
22290;DHT22;11313;50.116;8.424;2022-08-14T03:52:02;26.20;49.20
22290;DHT22;11313;50.116;8.424;2022-08-14T03:54:29;26.20;49.20
22290;DHT22;11313;50.116;8.424;2022-08-14T03:56:56;26.20;49.20
22290;DHT22;11313;50.116;8.424;2022-08-14T03:59:25;26.20;49.20
22290;DHT22;11313;50.116;8.424;2022-08-14T04:01:50;26.20;49.20
22290;DHT22;11313;50.116;8.424;2022-08-14T04:04:17;26.20;49.20
22290;DHT22;11313;50.116;8.424;2022-08-14T04:06:43;26.10;49.10
22290;DHT22;11313;50.116;8.424;2022-08-14T04:09:08;26.20;49.20
22290;DHT22;11313;50.116;8.424;2022-08-14T04:11:35;26.20;49.20
22290;DHT22;11313;50.116;8.424;2022-08-14T04:14:01;26.20;49.20
22290;DHT22;11313;50.116;8.424;2022-08-14T04:16:26;26.20;49.20
22290;DHT22;11313;50.116;8.424;2022-08-14T04:18:54;26.20;49.20
22290;DHT22;11313;50.116;8.424;2022-08-14T04:21:22;26.20;49.20
22290;DHT22;11313;50.116;8.424;2022-08-14T04:23:50;26.30;49.30
22290;DHT22;11313;50.116;8.424;2022-08-14T04:26:17;26.20;49.30
22290;DHT22;11313;50.116;8.424;2022-08-14T04:28:44;26.20;49.30
22290;DHT22;11313;50.116;8.424;2022-08-14T04:31:11;26.20;49.30
22290;DHT22;11313;50.116;8.424;2022-08-14T04:33:37;26.30;49.30
22290;DHT22;11313;50.116;8.424;2022-08-14T04:36:03;26.20;49.30
22290;DHT22;11313;50.116;8.424;2022-08-14T04:38:29;26.20;49.30
22290;DHT22;11313;50.116;8.424;2022-08-14T04:41:13;26.20;49.20
22290;DHT22;11313;50.116;8.424;2022-08-14T04:43:57;26.00;49.20
22290;DHT22;11313;50.116;8.424;2022-08-14T04:46:23;26.10;50.40
22290;DHT22;11313;50.116;8.424;2022-08-14T04:48:50;26.10;50.60
22290;DHT22;11313;50.116;8.424;2022-08-14T04:51:18;25.90;50.90
22290;DHT22;11313;50.116;8.424;2022-08-14T04:53:46;25.80;51.20
22290;DHT22;11313;50.116;8.424;2022-08-14T04:56:15;25.80;51.50
22290;DHT22;11313;50.116;8.424;2022-08-14T04:58:41;25.70;51.70
22290;DHT22;11313;50.116;8.424;2022-08-14T05:01:09;25.70;51.90
22290;DHT22;11313;50.116;8.424;2022-08-14T05:03:36;25.60;52.00
22290;DHT22;11313;50.116;8.424;2022-08-14T05:06:07;25.60;52.80
22290;DHT22;11313;50.116;8.424;2022-08-14T05:08:34;25.60;52.20
22290;DHT22;11313;50.116;8.424;2022-08-14T05:11:01;25.50;52.20
22290;DHT22;11313;50.116;8.424;2022-08-14T05:13:29;25.50;52.30
22290;DHT22;11313;50.116;8.424;2022-08-14T05:15:57;25.50;52.40
22290;DHT22;11313;50.116;8.424;2022-08-14T05:18:28;25.40;52.40
22290;DHT22;11313;50.116;8.424;2022-08-14T05:20:59;25.50;52.70
22290;DHT22;11313;50.116;8.424;2022-08-14T05:23:30;25.50;52.70
22290;DHT22;11313;50.116;8.424;2022-08-14T05:25:57;25.50;52.70
22290;DHT22;11313;50.116;8.424;2022-08-14T05:28:39;25.50;52.80
22290;DHT22;11313;50.116;8.424;2022-08-14T05:31:06;25.50;53.00
22290;DHT22;11313;50.116;8.424;2022-08-14T05:33:34;25.50;53.10
22290;DHT22;11313;50.116;8.424;2022-08-14T05:36:04;25.40;53.10
22290;DHT22;11313;50.116;8.424;2022-08-14T05:38:36;25.50;53.20
22290;DHT22;11313;50.116;8.424;2022-08-14T05:41:05;25.50;54.00
22290;DHT22;11313;50.116;8.424;2022-08-14T05:43:31;25.50;54.20
22290;DHT22;11313;50.116;8.424;2022-08-14T05:45:57;25.50;53.90
22290;DHT22;11313;50.116;8.424;2022-08-14T05:48:24;25.50;53.80
22290;DHT22;11313;50.116;8.424;2022-08-14T05:50:51;25.50;53.70
22290;DHT22;11313;50.116;8.424;2022-08-14T05:53:23;25.50;53.80
22290;DHT22;11313;50.116;8.424;2022-08-14T05:56:07;25.50;53.60
22290;DHT22;11313;50.116;8.424;2022-08-14T05:58:41;25.50;54.20
22290;DHT22;11313;50.116;8.424;2022-08-14T06:05:02;25.60;54.20
22290;DHT22;11313;50.116;8.424;2022-08-14T06:07:34;25.60;53.90
22290;DHT22;11313;50.116;8.424;2022-08-14T06:10:00;25.60;54.00
22290;DHT22;11313;50.116;8.424;2022-08-14T06:12:29;25.60;54.20
22290;DHT22;11313;50.116;8.424;2022-08-14T06:14:54;25.50;54.30
22290;DHT22;11313;50.116;8.424;2022-08-14T06:17:20;25.50;54.50
22290;DHT22;11313;50.116;8.424;2022-08-14T06:19:45;25.50;54.60
22290;DHT22;11313;50.116;8.424;2022-08-14T06:22:11;25.50;54.70
22290;DHT22;11313;50.116;8.424;2022-08-14T06:24:36;25.60;54.70
22290;DHT22;11313;50.116;8.424;2022-08-14T06:27:03;25.60;54.70
22290;DHT22;11313;50.116;8.424;2022-08-14T06:29:29;25.60;54.90
22290;DHT22;11313;50.116;8.424;2022-08-14T06:31:54;25.60;54.70
22290;DHT22;11313;50.116;8.424;2022-08-14T06:34:20;25.60;55.00
22290;DHT22;11313;50.116;8.424;2022-08-14T06:36:45;25.70;54.80
22290;DHT22;11313;50.116;8.424;2022-08-14T06:39:11;25.60;54.70
22290;DHT22;11313;50.116;8.424;2022-08-14T06:41:40;25.70;54.90
22290;DHT22;11313;50.116;8.424;2022-08-14T06:44:09;25.70;54.80
22290;DHT22;11313;50.116;8.424;2022-08-14T06:46:35;25.60;54.70
22290;DHT22;11313;50.116;8.424;2022-08-14T06:49:01;25.70;54.90
22290;DHT22;11313;50.116;8.424;2022-08-14T06:51:27;25.70;54.90
22290;DHT22;11313;50.116;8.424;2022-08-14T06:53:52;25.70;55.10
22290;DHT22;11313;50.116;8.424;2022-08-14T06:56:18;25.70;55.00
22290;DHT22;11313;50.116;8.424;2022-08-14T06:58:44;25.50;54.60
22290;DHT22;11313;50.116;8.424;2022-08-14T07:01:09;25.60;54.90
22290;DHT22;11313;50.116;8.424;2022-08-14T07:03:56;25.60;55.00
22290;DHT22;11313;50.116;8.424;2022-08-14T07:06:40;25.70;54.90
22290;DHT22;11313;50.116;8.424;2022-08-14T07:09:09;25.70;54.90
22290;DHT22;11313;50.116;8.424;2022-08-14T07:11:34;25.70;54.80
22290;DHT22;11313;50.116;8.424;2022-08-14T07:14:00;25.70;54.80
22290;DHT22;11313;50.116;8.424;2022-08-14T07:16:25;25.70;54.70
22290;DHT22;11313;50.116;8.424;2022-08-14T07:18:51;25.70;54.50
22290;DHT22;11313;50.116;8.424;2022-08-14T07:21:16;25.90;54.50
22290;DHT22;11313;50.116;8.424;2022-08-14T07:23:42;25.80;54.20
22290;DHT22;11313;50.116;8.424;2022-08-14T07:26:07;25.80;54.00
22290;DHT22;11313;50.116;8.424;2022-08-14T07:28:36;25.90;53.90
22290;DHT22;11313;50.116;8.424;2022-08-14T07:31:06;25.90;53.70
22290;DHT22;11313;50.116;8.424;2022-08-14T07:33:36;25.90;53.50
22290;DHT22;11313;50.116;8.424;2022-08-14T07:36:05;25.90;53.40
22290;DHT22;11313;50.116;8.424;2022-08-14T07:38:31;25.90;53.30
22290;DHT22;11313;50.116;8.424;2022-08-14T07:40:56;25.90;53.20
22290;DHT22;11313;50.116;8.424;2022-08-14T07:43:24;25.90;53.20
22290;DHT22;11313;50.116;8.424;2022-08-14T07:45:50;25.90;53.00
22290;DHT22;11313;50.116;8.424;2022-08-14T07:48:16;25.90;53.00
22290;DHT22;11313;50.116;8.424;2022-08-14T07:50:42;25.90;52.80
22290;DHT22;11313;50.116;8.424;2022-08-14T07:53:08;25.90;53.40
22290;DHT22;11313;50.116;8.424;2022-08-14T07:55:34;25.90;52.70
22290;DHT22;11313;50.116;8.424;2022-08-14T07:58:00;26.00;52.70
22290;DHT22;11313;50.116;8.424;2022-08-14T08:00:25;25.90;52.60
22290;DHT22;11313;50.116;8.424;2022-08-14T08:02:53;25.90;52.50
22290;DHT22;11313;50.116;8.424;2022-08-14T08:05:21;25.90;52.50
22290;DHT22;11313;50.116;8.424;2022-08-14T08:07:49;25.90;52.50
22290;DHT22;11313;50.116;8.424;2022-08-14T08:10:21;25.90;52.80
22290;DHT22;11313;50.116;8.424;2022-08-14T08:13:11;25.90;52.30
22290;DHT22;11313;50.116;8.424;2022-08-14T08:15:37;25.90;52.30
22290;DHT22;11313;50.116;8.424;2022-08-14T08:18:05;25.90;52.30
22290;DHT22;11313;50.116;8.424;2022-08-14T08:20:37;26.00;52.30
22290;DHT22;11313;50.116;8.424;2022-08-14T08:23:04;26.00;52.30
22290;DHT22;11313;50.116;8.424;2022-08-14T08:25:32;26.00;52.30
22290;DHT22;11313;50.116;8.424;2022-08-14T08:28:01;26.00;52.20
22290;DHT22;11313;50.116;8.424;2022-08-14T08:30:29;26.00;52.20
22290;DHT22;11313;50.116;8.424;2022-08-14T08:32:57;26.00;52.20
22290;DHT22;11313;50.116;8.424;2022-08-14T08:35:25;26.00;52.10
22290;DHT22;11313;50.116;8.424;2022-08-14T08:37:53;26.00;52.10
22290;DHT22;11313;50.116;8.424;2022-08-14T08:40:31;26.00;52.10
22290;DHT22;11313;50.116;8.424;2022-08-14T08:43:01;26.00;52.10
22290;DHT22;11313;50.116;8.424;2022-08-14T08:45:27;25.90;51.90
22290;DHT22;11313;50.116;8.424;2022-08-14T08:47:53;25.90;51.90
22290;DHT22;11313;50.116;8.424;2022-08-14T08:50:35;26.00;52.00
22290;DHT22;11313;50.116;8.424;2022-08-14T08:53:05;26.00;51.90
22290;DHT22;11313;50.116;8.424;2022-08-14T08:55:39;26.00;51.90
22290;DHT22;11313;50.116;8.424;2022-08-14T08:58:10;26.00;51.90
22290;DHT22;11313;50.116;8.424;2022-08-14T09:00:38;26.00;51.80
22290;DHT22;11313;50.116;8.424;2022-08-14T09:03:10;26.00;51.80
22290;DHT22;11313;50.116;8.424;2022-08-14T09:05:46;26.00;51.80
22290;DHT22;11313;50.116;8.424;2022-08-14T09:08:17;26.00;51.80
22290;DHT22;11313;50.116;8.424;2022-08-14T09:10:43;25.90;51.70
22290;DHT22;11313;50.116;8.424;2022-08-14T09:13:09;26.00;51.70
22290;DHT22;11313;50.116;8.424;2022-08-14T09:15:39;26.10;51.80
22290;DHT22;11313;50.116;8.424;2022-08-14T09:18:06;26.00;51.70
22290;DHT22;11313;50.116;8.424;2022-08-14T09:20:32;26.00;51.70
22290;DHT22;11313;50.116;8.424;2022-08-14T09:22:58;26.00;51.70
22290;DHT22;11313;50.116;8.424;2022-08-14T09:25:24;26.00;51.70
22290;DHT22;11313;50.116;8.424;2022-08-14T09:27:49;26.00;51.60
22290;DHT22;11313;50.116;8.424;2022-08-14T09:41:01;26.00;51.60
22290;DHT22;11313;50.116;8.424;2022-08-14T09:43:45;26.00;51.50
22290;DHT22;11313;50.116;8.424;2022-08-14T09:46:13;26.00;51.50
22290;DHT22;11313;50.116;8.424;2022-08-14T09:48:40;26.00;51.50
22290;DHT22;11313;50.116;8.424;2022-08-14T09:51:06;26.00;51.50
22290;DHT22;11313;50.116;8.424;2022-08-14T09:53:36;26.00;51.50
22290;DHT22;11313;50.116;8.424;2022-08-14T09:56:03;26.00;51.50
22290;DHT22;11313;50.116;8.424;2022-08-14T09:58:41;26.00;51.40
22290;DHT22;11313;50.116;8.424;2022-08-14T10:01:19;26.00;51.40
22290;DHT22;11313;50.116;8.424;2022-08-14T10:03:55;26.00;51.40
22290;DHT22;11313;50.116;8.424;2022-08-14T10:06:23;26.00;51.40
22290;DHT22;11313;50.116;8.424;2022-08-14T10:08:57;26.00;51.40
22290;DHT22;11313;50.116;8.424;2022-08-14T10:11:30;26.00;51.30
22290;DHT22;11313;50.116;8.424;2022-08-14T10:14:19;26.00;51.30
22290;DHT22;11313;50.116;8.424;2022-08-14T10:16:48;26.10;51.40
22290;DHT22;11313;50.116;8.424;2022-08-14T10:19:18;25.90;51.20
22290;DHT22;11313;50.116;8.424;2022-08-14T10:22:02;26.10;51.30
22290;DHT22;11313;50.116;8.424;2022-08-14T10:24:38;26.00;51.30
22290;DHT22;11313;50.116;8.424;2022-08-14T10:27:24;26.00;51.30
22290;DHT22;11313;50.116;8.424;2022-08-14T10:29:54;26.00;51.30
22290;DHT22;11313;50.116;8.424;2022-08-14T10:32:21;26.00;51.20
22290;DHT22;11313;50.116;8.424;2022-08-14T10:34:48;26.10;51.30
22290;DHT22;11313;50.116;8.424;2022-08-14T10:37:15;26.10;51.20
22290;DHT22;11313;50.116;8.424;2022-08-14T10:39:43;26.00;51.20
22290;DHT22;11313;50.116;8.424;2022-08-14T10:42:11;26.00;51.20
22290;DHT22;11313;50.116;8.424;2022-08-14T10:44:40;26.00;51.20
22290;DHT22;11313;50.116;8.424;2022-08-14T10:47:08;26.10;51.20
22290;DHT22;11313;50.116;8.424;2022-08-14T10:49:36;26.10;51.20
22290;DHT22;11313;50.116;8.424;2022-08-14T10:52:18;26.00;51.10
22290;DHT22;11313;50.116;8.424;2022-08-14T10:54:45;26.00;51.20
22290;DHT22;11313;50.116;8.424;2022-08-14T10:59:42;26.00;51.10
22290;DHT22;11313;50.116;8.424;2022-08-14T11:02:42;26.10;51.10
22290;DHT22;11313;50.116;8.424;2022-08-14T11:07:39;26.10;51.10
22290;DHT22;11313;50.116;8.424;2022-08-14T11:10:11;26.10;51.10
22290;DHT22;11313;50.116;8.424;2022-08-14T11:12:48;26.10;51.10
22290;DHT22;11313;50.116;8.424;2022-08-14T11:15:23;26.10;51.10
22290;DHT22;11313;50.116;8.424;2022-08-14T11:17:50;26.10;51.10
22290;DHT22;11313;50.116;8.424;2022-08-14T11:20:18;26.10;51.10
22290;DHT22;11313;50.116;8.424;2022-08-14T11:22:45;26.10;51.10
22290;DHT22;11313;50.116;8.424;2022-08-14T11:25:13;26.20;51.10
22290;DHT22;11313;50.116;8.424;2022-08-14T11:27:44;26.10;51.10
22290;DHT22;11313;50.116;8.424;2022-08-14T11:30:16;26.10;51.10
22290;DHT22;11313;50.116;8.424;2022-08-14T11:32:44;26.10;51.10
22290;DHT22;11313;50.116;8.424;2022-08-14T11:35:15;26.10;51.10
22290;DHT22;11313;50.116;8.424;2022-08-14T11:38:08;26.10;51.10
22290;DHT22;11313;50.116;8.424;2022-08-14T11:40:37;26.10;51.10
22290;DHT22;11313;50.116;8.424;2022-08-14T11:43:06;26.10;51.10
22290;DHT22;11313;50.116;8.424;2022-08-14T11:45:34;26.10;51.10
22290;DHT22;11313;50.116;8.424;2022-08-14T11:50:38;26.10;51.00
22290;DHT22;11313;50.116;8.424;2022-08-14T11:53:05;26.10;51.00
22290;DHT22;11313;50.116;8.424;2022-08-14T11:55:36;26.10;51.00
22290;DHT22;11313;50.116;8.424;2022-08-14T11:58:05;26.10;51.00
22290;DHT22;11313;50.116;8.424;2022-08-14T12:00:44;26.10;51.00
22290;DHT22;11313;50.116;8.424;2022-08-14T12:03:09;26.10;51.00
22290;DHT22;11313;50.116;8.424;2022-08-14T12:05:37;26.10;51.00
22290;DHT22;11313;50.116;8.424;2022-08-14T12:08:05;26.20;51.00
22290;DHT22;11313;50.116;8.424;2022-08-14T12:10:32;26.10;51.00
22290;DHT22;11313;50.116;8.424;2022-08-14T12:13:16;26.20;51.00
22290;DHT22;11313;50.116;8.424;2022-08-14T12:15:45;26.10;51.00
22290;DHT22;11313;50.116;8.424;2022-08-14T12:18:11;26.10;51.00
22290;DHT22;11313;50.116;8.424;2022-08-14T12:20:39;26.20;51.00
22290;DHT22;11313;50.116;8.424;2022-08-14T12:23:19;26.20;51.00
22290;DHT22;11313;50.116;8.424;2022-08-14T12:25:45;26.10;50.90
22290;DHT22;11313;50.116;8.424;2022-08-14T12:28:11;26.10;50.90
22290;DHT22;11313;50.116;8.424;2022-08-14T12:30:39;26.10;51.00
22290;DHT22;11313;50.116;8.424;2022-08-14T12:33:18;26.10;50.90
22290;DHT22;11313;50.116;8.424;2022-08-14T12:35:50;26.10;51.00
22290;DHT22;11313;50.116;8.424;2022-08-14T12:38:16;26.10;50.90
22290;DHT22;11313;50.116;8.424;2022-08-14T12:40:49;26.20;51.00
22290;DHT22;11313;50.116;8.424;2022-08-14T12:43:15;26.10;50.90
22290;DHT22;11313;50.116;8.424;2022-08-14T12:45:47;26.10;51.10
22290;DHT22;11313;50.116;8.424;2022-08-14T12:48:15;26.20;51.00
22290;DHT22;11313;50.116;8.424;2022-08-14T12:50:42;26.20;51.00
22290;DHT22;11313;50.116;8.424;2022-08-14T12:53:10;26.20;51.00
22290;DHT22;11313;50.116;8.424;2022-08-14T12:55:40;26.20;50.90
22290;DHT22;11313;50.116;8.424;2022-08-14T12:58:07;26.10;51.00
22290;DHT22;11313;50.116;8.424;2022-08-14T13:00:37;26.20;50.90
22290;DHT22;11313;50.116;8.424;2022-08-14T13:03:03;26.20;50.90
22290;DHT22;11313;50.116;8.424;2022-08-14T13:05:31;26.20;50.90
22290;DHT22;11313;50.116;8.424;2022-08-14T13:07:59;26.20;50.90
22290;DHT22;11313;50.116;8.424;2022-08-14T13:10:25;26.20;50.90
22290;DHT22;11313;50.116;8.424;2022-08-14T13:12:55;26.20;50.90
22290;DHT22;11313;50.116;8.424;2022-08-14T13:15:21;26.20;50.90
22290;DHT22;11313;50.116;8.424;2022-08-14T13:17:49;26.10;50.90
22290;DHT22;11313;50.116;8.424;2022-08-14T13:20:17;26.20;50.90
22290;DHT22;11313;50.116;8.424;2022-08-14T13:22:44;26.20;50.90
22290;DHT22;11313;50.116;8.424;2022-08-14T13:25:16;26.20;50.90
22290;DHT22;11313;50.116;8.424;2022-08-14T13:27:48;26.20;50.90
22290;DHT22;11313;50.116;8.424;2022-08-14T13:30:18;26.20;50.90
22290;DHT22;11313;50.116;8.424;2022-08-14T13:32:45;26.20;50.90
22290;DHT22;11313;50.116;8.424;2022-08-14T13:35:12;26.20;50.90
22290;DHT22;11313;50.116;8.424;2022-08-14T13:37:39;26.20;50.90
22290;DHT22;11313;50.116;8.424;2022-08-14T13:40:06;26.20;50.90
22290;DHT22;11313;50.116;8.424;2022-08-14T13:42:32;26.20;50.90
22290;DHT22;11313;50.116;8.424;2022-08-14T13:45:00;26.20;50.90
22290;DHT22;11313;50.116;8.424;2022-08-14T13:47:27;26.20;50.90
22290;DHT22;11313;50.116;8.424;2022-08-14T13:49:56;26.20;50.80
22290;DHT22;11313;50.116;8.424;2022-08-14T13:52:32;26.20;50.80
22290;DHT22;11313;50.116;8.424;2022-08-14T13:55:02;26.20;50.80
22290;DHT22;11313;50.116;8.424;2022-08-14T13:57:31;26.20;50.80
22290;DHT22;11313;50.116;8.424;2022-08-14T14:00:03;26.20;50.80
22290;DHT22;11313;50.116;8.424;2022-08-14T14:02:43;26.20;50.80
22290;DHT22;11313;50.116;8.424;2022-08-14T14:05:12;26.20;50.80
22290;DHT22;11313;50.116;8.424;2022-08-14T14:07:38;26.20;50.80
22290;DHT22;11313;50.116;8.424;2022-08-14T14:10:07;26.20;50.80
22290;DHT22;11313;50.116;8.424;2022-08-14T14:12:35;26.20;50.80
22290;DHT22;11313;50.116;8.424;2022-08-14T14:15:03;26.20;50.80
22290;DHT22;11313;50.116;8.424;2022-08-14T14:17:29;26.20;50.80
22290;DHT22;11313;50.116;8.424;2022-08-14T14:19:57;26.20;50.80
22290;DHT22;11313;50.116;8.424;2022-08-14T14:22:23;26.20;50.80
22290;DHT22;11313;50.116;8.424;2022-08-14T14:24:52;26.20;50.80
22290;DHT22;11313;50.116;8.424;2022-08-14T14:27:18;26.20;50.80
22290;DHT22;11313;50.116;8.424;2022-08-14T14:29:46;26.20;50.80
22290;DHT22;11313;50.116;8.424;2022-08-14T14:32:15;26.30;50.90
22290;DHT22;11313;50.116;8.424;2022-08-14T14:34:41;26.20;50.90
22290;DHT22;11313;50.116;8.424;2022-08-14T14:37:10;26.20;50.80
22290;DHT22;11313;50.116;8.424;2022-08-14T14:39:38;26.30;50.90
22290;DHT22;11313;50.116;8.424;2022-08-14T14:42:05;26.30;50.80
22290;DHT22;11313;50.116;8.424;2022-08-14T14:44:34;26.20;50.80
22290;DHT22;11313;50.116;8.424;2022-08-14T14:47:07;26.20;50.80
22290;DHT22;11313;50.116;8.424;2022-08-14T14:49:33;26.30;50.80
22290;DHT22;11313;50.116;8.424;2022-08-14T14:51:58;26.20;50.80
22290;DHT22;11313;50.116;8.424;2022-08-14T14:54:24;26.20;50.80
22290;DHT22;11313;50.116;8.424;2022-08-14T14:56:52;26.30;50.80
22290;DHT22;11313;50.116;8.424;2022-08-14T14:59:18;26.30;50.90
22290;DHT22;11313;50.116;8.424;2022-08-14T15:01:48;26.30;50.80
22290;DHT22;11313;50.116;8.424;2022-08-14T15:04:13;26.30;50.80
22290;DHT22;11313;50.116;8.424;2022-08-14T15:06:39;26.30;50.80
22290;DHT22;11313;50.116;8.424;2022-08-14T15:09:05;26.30;50.90
22290;DHT22;11313;50.116;8.424;2022-08-14T15:11:32;26.30;50.80
22290;DHT22;11313;50.116;8.424;2022-08-14T15:13:58;26.20;50.80
22290;DHT22;11313;50.116;8.424;2022-08-14T15:16:24;26.30;50.80
22290;DHT22;11313;50.116;8.424;2022-08-14T15:18:51;26.30;50.80
22290;DHT22;11313;50.116;8.424;2022-08-14T15:21:16;26.30;50.80
22290;DHT22;11313;50.116;8.424;2022-08-14T15:23:43;26.30;50.80
22290;DHT22;11313;50.116;8.424;2022-08-14T15:26:12;26.30;50.80
22290;DHT22;11313;50.116;8.424;2022-08-14T15:28:40;26.30;50.80
22290;DHT22;11313;50.116;8.424;2022-08-14T15:31:06;26.30;50.90
22290;DHT22;11313;50.116;8.424;2022-08-14T15:33:31;26.30;50.80
22290;DHT22;11313;50.116;8.424;2022-08-14T15:36:15;26.30;50.80
22290;DHT22;11313;50.116;8.424;2022-08-14T15:38:41;26.20;50.80
22290;DHT22;11313;50.116;8.424;2022-08-14T15:41:07;26.40;50.90
22290;DHT22;11313;50.116;8.424;2022-08-14T15:43:33;26.30;50.80
22290;DHT22;11313;50.116;8.424;2022-08-14T15:46:00;26.30;50.80
22290;DHT22;11313;50.116;8.424;2022-08-14T15:48:26;26.30;50.80
22290;DHT22;11313;50.116;8.424;2022-08-14T15:50:52;26.30;50.80
22290;DHT22;11313;50.116;8.424;2022-08-14T15:53:18;26.30;50.80
22290;DHT22;11313;50.116;8.424;2022-08-14T15:55:47;26.30;50.80
22290;DHT22;11313;50.116;8.424;2022-08-14T15:58:13;26.30;51.40
22290;DHT22;11313;50.116;8.424;2022-08-14T16:00:38;26.30;50.70
22290;DHT22;11313;50.116;8.424;2022-08-14T16:03:23;26.30;50.80
22290;DHT22;11313;50.116;8.424;2022-08-14T16:05:49;26.30;50.80
22290;DHT22;11313;50.116;8.424;2022-08-14T16:08:15;26.30;50.80
22290;DHT22;11313;50.116;8.424;2022-08-14T16:10:41;26.30;50.70
22290;DHT22;11313;50.116;8.424;2022-08-14T16:13:07;26.30;50.70
22290;DHT22;11313;50.116;8.424;2022-08-14T16:15:33;26.30;50.70
22290;DHT22;11313;50.116;8.424;2022-08-14T16:17:59;26.30;50.70
22290;DHT22;11313;50.116;8.424;2022-08-14T16:20:28;26.30;50.80
22290;DHT22;11313;50.116;8.424;2022-08-14T16:23:00;26.30;50.70
22290;DHT22;11313;50.116;8.424;2022-08-14T16:25:32;26.40;50.80
22290;DHT22;11313;50.116;8.424;2022-08-14T16:27:58;26.30;50.70
22290;DHT22;11313;50.116;8.424;2022-08-14T16:30:25;26.30;50.70
22290;DHT22;11313;50.116;8.424;2022-08-14T16:32:52;26.30;50.70
22290;DHT22;11313;50.116;8.424;2022-08-14T16:35:17;26.40;50.80
22290;DHT22;11313;50.116;8.424;2022-08-14T16:37:43;26.30;50.70
22290;DHT22;11313;50.116;8.424;2022-08-14T16:40:10;26.30;50.70
22290;DHT22;11313;50.116;8.424;2022-08-14T16:42:40;26.30;50.70
22290;DHT22;11313;50.116;8.424;2022-08-14T16:45:08;26.30;50.70
22290;DHT22;11313;50.116;8.424;2022-08-14T16:47:34;26.30;50.70
22290;DHT22;11313;50.116;8.424;2022-08-14T16:50:00;26.40;50.80
22290;DHT22;11313;50.116;8.424;2022-08-14T16:52:26;26.40;50.80
22290;DHT22;11313;50.116;8.424;2022-08-14T16:54:51;26.40;50.80
22290;DHT22;11313;50.116;8.424;2022-08-14T16:57:23;26.40;50.80
22290;DHT22;11313;50.116;8.424;2022-08-14T16:59:52;26.40;51.40
22290;DHT22;11313;50.116;8.424;2022-08-14T17:02:34;26.40;50.80
22290;DHT22;11313;50.116;8.424;2022-08-14T17:07:41;26.40;50.70
22290;DHT22;11313;50.116;8.424;2022-08-14T17:10:14;26.40;50.70
22290;DHT22;11313;50.116;8.424;2022-08-14T17:12:39;26.40;50.70
22290;DHT22;11313;50.116;8.424;2022-08-14T17:15:08;26.40;50.70
22290;DHT22;11313;50.116;8.424;2022-08-14T17:20:10;26.40;50.70
22290;DHT22;11313;50.116;8.424;2022-08-14T17:22:49;26.40;50.70
22290;DHT22;11313;50.116;8.424;2022-08-14T17:25:17;26.30;50.70
22290;DHT22;11313;50.116;8.424;2022-08-14T17:27:43;26.30;50.70
22290;DHT22;11313;50.116;8.424;2022-08-14T17:30:10;26.40;50.70
22290;DHT22;11313;50.116;8.424;2022-08-14T17:32:37;26.40;50.70
22290;DHT22;11313;50.116;8.424;2022-08-14T17:35:05;26.40;50.70
22290;DHT22;11313;50.116;8.424;2022-08-14T17:37:39;26.40;50.70
22290;DHT22;11313;50.116;8.424;2022-08-14T17:40:09;26.40;50.70
22290;DHT22;11313;50.116;8.424;2022-08-14T17:45:11;26.40;50.70
22290;DHT22;11313;50.116;8.424;2022-08-14T17:47:37;26.40;50.70
22290;DHT22;11313;50.116;8.424;2022-08-14T17:50:03;26.40;50.70
22290;DHT22;11313;50.116;8.424;2022-08-14T17:52:33;26.40;50.80
22290;DHT22;11313;50.116;8.424;2022-08-14T17:55:00;26.40;50.80
22290;DHT22;11313;50.116;8.424;2022-08-14T17:57:26;26.40;50.80
22290;DHT22;11313;50.116;8.424;2022-08-14T17:59:54;26.40;50.70
22290;DHT22;11313;50.116;8.424;2022-08-14T18:02:25;26.40;50.70
22290;DHT22;11313;50.116;8.424;2022-08-14T18:04:54;26.40;50.70
22290;DHT22;11313;50.116;8.424;2022-08-14T18:07:20;26.40;50.70
22290;DHT22;11313;50.116;8.424;2022-08-14T18:09:49;26.40;50.70
22290;DHT22;11313;50.116;8.424;2022-08-14T18:12:16;26.40;50.70
22290;DHT22;11313;50.116;8.424;2022-08-14T18:14:42;26.40;50.70
22290;DHT22;11313;50.116;8.424;2022-08-14T18:17:10;26.40;50.70
22290;DHT22;11313;50.116;8.424;2022-08-14T18:19:38;26.40;50.70
22290;DHT22;11313;50.116;8.424;2022-08-14T18:22:06;26.40;50.70
22290;DHT22;11313;50.116;8.424;2022-08-14T18:24:34;26.40;50.70
22290;DHT22;11313;50.116;8.424;2022-08-14T18:29:29;26.40;50.70
22290;DHT22;11313;50.116;8.424;2022-08-14T18:31:55;26.40;50.70
22290;DHT22;11313;50.116;8.424;2022-08-14T18:34:21;26.50;50.80
22290;DHT22;11313;50.116;8.424;2022-08-14T18:36:53;26.40;50.70
22290;DHT22;11313;50.116;8.424;2022-08-14T18:41:56;26.40;50.70
22290;DHT22;11313;50.116;8.424;2022-08-14T19:03:04;26.40;50.70
22290;DHT22;11313;50.116;8.424;2022-08-14T19:16:10;26.50;50.70
22290;DHT22;11313;50.116;8.424;2022-08-14T19:18:47;26.40;50.60
22290;DHT22;11313;50.116;8.424;2022-08-14T19:21:27;26.40;50.60
22290;DHT22;11313;50.116;8.424;2022-08-14T19:24:11;26.40;50.60
22290;DHT22;11313;50.116;8.424;2022-08-14T19:26:40;26.40;50.70
22290;DHT22;11313;50.116;8.424;2022-08-14T19:29:20;26.50;50.70
22290;DHT22;11313;50.116;8.424;2022-08-14T19:31:48;26.50;50.70
22290;DHT22;11313;50.116;8.424;2022-08-14T19:37:01;26.50;50.70
22290;DHT22;11313;50.116;8.424;2022-08-14T19:42:22;26.40;50.60
22290;DHT22;11313;50.116;8.424;2022-08-14T19:44:49;26.50;50.70
22290;DHT22;11313;50.116;8.424;2022-08-14T19:47:15;26.50;50.70
22290;DHT22;11313;50.116;8.424;2022-08-14T19:49:46;26.50;50.70
22290;DHT22;11313;50.116;8.424;2022-08-14T19:52:31;26.50;50.70
22290;DHT22;11313;50.116;8.424;2022-08-14T19:54:57;26.40;50.60
22290;DHT22;11313;50.116;8.424;2022-08-14T19:57:26;26.50;50.70
22290;DHT22;11313;50.116;8.424;2022-08-14T20:00:05;26.50;50.70
22290;DHT22;11313;50.116;8.424;2022-08-14T20:02:41;26.40;50.60
22290;DHT22;11313;50.116;8.424;2022-08-14T20:05:09;26.50;50.70
22290;DHT22;11313;50.116;8.424;2022-08-14T20:07:37;26.40;50.60
22290;DHT22;11313;50.116;8.424;2022-08-14T20:13:00;26.50;50.70